In Rescue
 
Open Full Screen Window  High Contrast Mode
January 28, 2020 11:19 PM EST
Weather Information
Wind Direction
  ---
Wind Speed
  00 kt (0 mph)
Wind Gust
  00 kt (0 mph)
Altimeter
30.12 in
Visibility
10 SM
Temperature
-01° C
30° F
Dewpoint
-05° C
23° F
Humidity
75%
Sky Condition
Overcast @ 3,600 ft
VFR

METAR KRNP 290419Z AUTO 00000KT 10SM OVC036 M01/M05 A3012 RMK AO2 T10111046

FAA Disclaimer: The data displayed is for advisory purposes only and is not to be used for flight planning or operations.